Ardmore, Oklahoma
Current Conditions -  °F | °C
As of 2:35 PM on Thursday 27 Nov 2014 (Local Time) from K1F0 Reporting Station
Clear Clear  
Wind Chill: 12°   Ceiling: Unl
Heat Index: 12°   Visibility: 10mi
Dew Point: -7°   Wind: 0mph
Humidity: 26%   Direction: NA
Pressure: 30.43"   Gusts: NA
Location:  34.17°N, 97.13°W
Report Text: K1F0 272035Z AUTO 00000KT 10SM CLR 12/M07 A3043 RMK AO2
Loading
Personal Weather Stations






























Interactive Weather Map New forecast layout! Learn more

10-Day Weather Forecast

Advertisements
Track Severe Weather on mobile